Time;durP1;ratioP1;P1;durP2;ratioP2;P2;SDS_P1;SDS_P2;PMS_P1;PMS_P2;Temp;Humidity;BMP_temperature;BMP_pressure;BME280_temperature;BME280_humidity;BME280_pressure;Samples;Min_cycle;Max_cycle;Signal;HPM_P1;HPM_P2
2022/10/26 00:00:36;;;;;;;10.63;8.63;;;;;;;2.63;100.00;101170.28;4900588;29;20205;-70
2022/10/26 00:03:03;;;;;;;12.63;9.07;;;;;;;2.54;100.00;101160.34;4900611;29;20045;-71
2022/10/26 00:05:32;;;;;;;14.03;9.67;;;;;;;2.24;100.00;101125.56;4900569;29;20044;-71
2022/10/26 00:07:57;;;;;;;13.23;10.18;;;;;;;2.36;100.00;101143.19;4900267;29;20269;-70
2022/10/26 00:10:23;;;;;;;12.63;10.60;;;;;;;2.47;100.00;101159.09;4900388;29;20184;-71
2022/10/26 00:12:50;;;;;;;12.73;10.30;;;;;;;2.44;100.00;101154.88;4899980;29;20089;-70
2022/10/26 00:15:17;;;;;;;13.80;9.93;;;;;;;2.42;100.00;101150.66;4900273;29;20028;-71
2022/10/26 00:17:42;;;;;;;14.17;10.90;;;;;;;2.38;100.00;101149.19;4900334;29;20269;-72
2022/10/26 00:20:08;;;;;;;10.67;9.43;;;;;;;2.39;100.00;101145.59;4900405;29;20268;-70
2022/10/26 00:22:33;;;;;;;13.57;10.20;;;;;;;2.37;100.00;101137.81;4900179;29;20036;-71
2022/10/26 00:24:59;;;;;;;15.47;10.80;;;;;;;2.42;100.00;101125.22;4899998;29;20025;-72
2022/10/26 00:27:24;;;;;;;12.30;10.13;;;;;;;2.43;100.00;101121.63;4900511;29;20388;-71
2022/10/26 00:29:50;;;;;;;14.70;10.37;;;;;;;2.51;100.00;101136.91;4899971;29;20028;-70
2022/10/26 00:32:15;;;;;;;16.23;10.27;;;;;;;2.57;100.00;101122.50;4883054;29;20052;-71
2022/10/26 00:34:41;;;;;;;13.13;10.07;;;;;;;2.67;100.00;101121.78;4899994;29;20033;-70
2022/10/26 00:37:07;;;;;;;12.40;9.80;;;;;;;2.67;100.00;101127.06;4883022;29;20039;-71
2022/10/26 00:39:32;;;;;;;13.63;11.53;;;;;;;2.64;100.00;101114.13;4899742;29;20039;-71
2022/10/26 00:41:57;;;;;;;15.03;11.97;;;;;;;2.63;100.00;101119.47;4899799;29;20028;-70
2022/10/26 00:44:41;;;;;;;15.43;12.37;;;;;;;2.70;100.00;101118.97;4899653;29;20036;-72
2022/10/26 00:47:31;;;;;;;18.83;12.80;;;;;;;2.76;100.00;101113.28;4899448;29;20377;-71
2022/10/26 00:50:02;;;;;;;19.47;13.03;;;;;;;2.75;100.00;101116.84;4907075;29;20659;-72
2022/10/26 00:52:29;;;;;;;16.00;12.07;;;;;;;2.75;100.00;101113.38;4913346;29;20264;-72
2022/10/26 00:54:59;;;;;;;15.17;10.77;;;;;;;2.68;100.00;101101.59;4903407;29;20340;-72
2022/10/26 00:57:25;;;;;;;20.13;11.90;;;;;;;2.71;100.00;101111.91;4905550;29;20265;-72
2022/10/26 00:59:54;;;;;;;18.53;14.40;;;;;;;2.71;100.00;101109.28;4902114;29;20328;-72
2022/10/26 01:02:23;;;;;;;18.40;13.35;;;;;;;2.82;100.00;101111.16;4911284;29;20285;-71
2022/10/26 01:04:49;;;;;;;;;;;;;;;2.91;100.00;101105.31;4903734;29;20047;-71
2022/10/26 01:07:15;;;;;;;15.07;11.50;;;;;;;2.86;100.00;101102.13;4899686;29;19915;-70
2022/10/26 01:09:41;;;;;;;14.63;11.93;;;;;;;2.85;100.00;101103.06;4900466;29;20294;-69
2022/10/26 01:12:06;;;;;;;16.73;12.13;;;;;;;2.80;100.00;101101.59;4902479;29;20272;-72
2022/10/26 01:14:35;;;;;;;15.32;12.07;;;;;;;2.84;100.00;101096.13;4901966;29;20060;-73
2022/10/26 01:17:22;;;;;;;15.53;13.23;;;;;;;2.86;100.00;101091.59;4891052;29;20032;-73
2022/10/26 01:20:00;;;;;;;16.30;12.43;;;;;;;2.92;100.00;101085.94;4901862;29;20043;-72
2022/10/26 01:22:50;;;;;;;14.30;12.10;;;;;;;2.93;100.00;101095.50;4900778;29;20300;-73
2022/10/26 01:25:36;;;;;;;12.40;11.10;;;;;;;2.88;100.00;101093.19;4900757;29;20269;-71
2022/10/26 01:28:13;;;;;;;12.47;11.13;;;;;;;2.87;100.00;101088.84;4902987;29;20769;-74
2022/10/26 01:30:44;;;;;;;17.37;11.73;;;;;;;2.80;100.00;101077.09;4899431;29;20364;-74
2022/10/26 01:33:10;;;;;;;15.00;10.80;;;;;;;2.85;100.00;101089.91;4903654;29;20760;-72
2022/10/26 01:35:51;;;;;;;16.83;13.07;;;;;;;2.87;100.00;101082.75;4900673;29;20280;-72
2022/10/26 01:38:21;;;;;;;16.77;13.23;;;;;;;2.79;100.00;101078.03;4899338;29;20088;-74
2022/10/26 01:41:04;;;;;;;16.90;13.10;;;;;;;2.85;100.00;101087.28;4904986;29;20744;-72
2022/10/26 01:43:36;;;;;;;15.70;13.00;;;;;;;2.89;100.00;101070.34;4903841;29;20330;-73
2022/10/26 01:46:06;;;;;;;16.97;12.33;;;;;;;2.97;100.00;101081.19;4901526;29;20273;-73
2022/10/26 01:48:33;;;;;;;17.23;11.90;;;;;;;2.78;100.00;101042.16;4903543;29;20264;-71
2022/10/26 01:51:01;;;;;;;16.37;13.03;;;;;;;3.02;100.00;101069.41;4909365;29;20268;-73
2022/10/26 01:53:27;;;;;;;16.10;13.17;;;;;;;3.03;100.00;101073.72;4900035;29;20261;-73
2022/10/26 01:55:56;;;;;;;15.97;11.93;;;;;;;3.05;100.00;101073.59;4903746;29;20303;-73
2022/10/26 01:59:02;;;;;;;20.88;14.13;;;;;;;3.09;100.00;101072.44;4911403;29;20281;-73
2022/10/26 02:01:53;;;;;;;20.67;12.67;;;;;;;3.04;100.00;101078.03;4888410;29;20059;-72
2022/10/26 02:04:45;;;;;;;20.10;13.37;;;;;;;2.95;100.00;101067.31;4907431;29;20273;-74
2022/10/26 02:07:24;;;;;;;18.63;13.53;;;;;;;2.97;100.00;101062.78;4888513;29;20920;-74
2022/10/26 02:10:12;;;;;;;17.43;13.30;;;;;;;3.01;100.00;101065.09;4885228;29;20261;-76
2022/10/26 02:12:41;;;;;;;18.77;14.23;;;;;;;3.03;100.00;101064.97;4902623;29;20261;-72
2022/10/26 02:15:21;;;;;;;20.63;14.77;;;;;;;3.09;100.00;101069.81;4880813;29;20297;-69
2022/10/26 02:18:02;;;;;;;19.43;15.70;;;;;;;3.15;100.00;101061.47;4897950;29;20036;-71
2022/10/26 02:20:40;;;;;;;21.37;15.23;;;;;;;3.10;100.00;101063.59;4897914;29;20621;-71
2022/10/26 02:23:08;;;;;;;18.48;13.98;;;;;;;3.05;100.00;101060.44;4898261;29;20750;-70
2022/10/26 02:25:38;;;;;;;21.73;13.87;;;;;;;3.03;100.00;101054.47;4897982;29;20496;-71
2022/10/26 02:28:09;;;;;;;19.47;13.20;;;;;;;2.96;100.00;101040.91;4897913;29;20760;-71
2022/10/26 02:30:37;;;;;;;20.37;13.90;;;;;;;3.15;100.00;101061.47;4897888;29;20639;-71
2022/10/26 02:33:05;;;;;;;20.05;13.90;;;;;;;3.19;100.00;101056.88;4897595;29;20583;-69
2022/10/26 02:35:35;;;;;;;20.03;15.27;;;;;;;3.18;100.00;101052.53;4897610;29;20544;-70
2022/10/26 02:38:06;;;;;;;21.90;16.57;;;;;;;3.26;100.00;101048.44;4881144;29;20348;-71
2022/10/26 02:40:33;;;;;;;19.43;15.90;;;;;;;3.31;100.00;101051.56;4897998;29;20756;-70
2022/10/26 02:43:04;;;;;;;23.43;17.77;;;;;;;3.32;100.00;101053.25;4905614;29;20276;-69
2022/10/26 02:45:34;;;;;;;21.03;18.13;;;;;;;3.35;100.00;101062.72;4911132;29;20594;-68
2022/10/26 02:47:59;;;;;;;23.57;18.53;;;;;;;3.28;100.00;101051.78;4898974;29;20272;-69
2022/10/26 02:50:32;;;;;;;25.43;18.70;;;;;;;3.18;100.00;101047.25;4897904;29;20269;-72
2022/10/26 02:53:21;;;;;;;25.43;18.60;;;;;;;3.17;100.00;101048.22;4897400;29;20064;-69
2022/10/26 02:55:48;;;;;;;;;;;;;;;3.20;100.00;101048.03;4897897;29;20303;-71
2022/10/26 02:58:20;;;;;;;28.10;19.90;;;;;;;3.20;100.00;101038.34;4897513;29;19911;-69
2022/10/26 03:00:46;;;;;;;27.73;19.73;;;;;;;3.23;100.00;101043.38;4897080;29;20609;-71
2022/10/26 03:03:12;;;;;;;28.93;21.17;;;;;;;3.19;100.00;101031.38;4896400;29;20288;-69
2022/10/26 03:05:41;;;;;;;29.37;20.07;;;;;;;3.22;100.00;101031.16;4896937;29;20044;-70
2022/10/26 03:08:07;;;;;;;32.27;21.43;;;;;;;3.35;100.00;101037.22;4897213;29;20264;-69
2022/10/26 03:10:39;;;;;;;24.30;18.80;;;;;;;3.39;100.00;101049.22;4880542;29;20272;-71
2022/10/26 03:13:05;;;;;;;28.83;18.43;;;;;;;3.36;100.00;101041.53;4897389;29;20429;-71
2022/10/26 03:15:33;;;;;;;23.93;18.10;;;;;;;3.11;100.00;101002.97;4897324;29;20298;-71
2022/10/26 03:17:59;;;;;;;26.60;18.05;;;;;;;3.36;100.00;101036.28;4897081;29;20090;-71
2022/10/26 03:20:24;;;;;;;28.17;19.07;;;;;;;3.40;100.00;101029.84;4897012;29;20492;-73
2022/10/26 03:22:50;;;;;;;27.97;19.07;;;;;;;3.30;100.00;101023.56;4897312;29;20115;-70
2022/10/26 03:25:16;;;;;;;25.07;18.20;;;;;;;3.32;100.00;101032.19;4897097;29;20055;-70
2022/10/26 03:27:42;;;;;;;25.70;19.57;;;;;;;3.28;100.00;101033.38;4897013;29;20036;-70
2022/10/26 03:30:07;;;;;;;26.27;19.53;;;;;;;3.22;100.00;101025.91;4896792;29;20484;-70
2022/10/26 03:32:33;;;;;;;27.20;19.43;;;;;;;3.28;100.00;101030.72;4896769;29;20312;-72
2022/10/26 03:34:59;;;;;;;33.67;20.53;;;;;;;3.27;100.00;101022.94;4896863;29;20029;-71
2022/10/26 03:37:24;;;;;;;25.87;17.97;;;;;;;3.30;100.00;101027.97;4896837;29;20035;-70
2022/10/26 03:39:50;;;;;;;28.63;18.97;;;;;;;3.30;100.00;101023.56;4896967;29;20088;-70
2022/10/26 03:42:16;;;;;;;25.73;18.50;;;;;;;3.30;100.00;101026.19;4896974;29;20130;-71
2022/10/26 03:44:41;;;;;;;24.40;18.37;;;;;;;3.28;100.00;101025.47;4897015;29;20428;-69
2022/10/26 03:47:07;;;;;;;29.77;18.97;;;;;;;3.32;100.00;101024.28;4896807;29;20088;-70
2022/10/26 03:49:32;;;;;;;25.73;18.47;;;;;;;3.36;100.00;101023.13;4896863;29;20028;-70
2022/10/26 03:51:58;;;;;;;25.27;18.53;;;;;;;3.46;100.00;101025.06;4896813;29;20084;-69
2022/10/26 03:54:24;;;;;;;28.97;17.87;;;;;;;3.49;100.00;101017.81;4896978;29;20068;-71
2022/10/26 03:56:49;;;;;;;26.07;17.30;;;;;;;3.50;100.00;101014.25;4896860;29;20029;-70
2022/10/26 03:59:15;;;;;;;25.90;18.33;;;;;;;3.49;100.00;101011.72;4896748;29;20029;-70
2022/10/26 04:01:40;;;;;;;28.00;18.87;;;;;;;3.48;100.00;101007.41;4896525;29;20109;-70
2022/10/26 04:04:06;;;;;;;24.27;17.30;;;;;;;3.48;100.00;101007.41;4896700;29;20040;-71
2022/10/26 04:06:32;;;;;;;29.80;19.07;;;;;;;3.58;100.00;101017.16;4896762;29;20426;-73
2022/10/26 04:09:01;;;;;;;30.83;17.63;;;;;;;3.66;100.00;101011.31;4880028;29;20040;-70
2022/10/26 04:11:29;;;;;;;23.77;16.57;;;;;;;3.64;100.00;101006.16;4896534;29;20038;-70
2022/10/26 04:13:58;;;;;;;22.77;17.05;;;;;;;3.66;100.00;101013.94;4901166;29;20268;-69
2022/10/26 04:16:24;;;;;;;;;;;;;;;3.63;100.00;101006.28;4903323;29;20572;-71
2022/10/26 04:18:49;;;;;;;27.57;18.50;;;;;;;3.58;100.00;101005.78;4901804;29;19951;-71
2022/10/26 04:21:15;;;;;;;24.67;17.43;;;;;;;3.58;100.00;101008.41;4901018;29;20029;-69
2022/10/26 04:23:40;;;;;;;25.23;17.77;;;;;;;3.57;100.00;101004.09;4900374;29;20036;-69
2022/10/26 04:26:06;;;;;;;29.47;18.60;;;;;;;3.57;100.00;101014.63;4900187;29;20032;-70
2022/10/26 04:28:32;;;;;;;26.87;17.57;;;;;;;3.56;100.00;100999.78;4883402;29;20438;-71
2022/10/26 04:30:57;;;;;;;23.80;17.27;;;;;;;3.54;100.00;101004.31;4900477;29;20044;-71
2022/10/26 04:33:23;;;;;;;25.90;17.47;;;;;;;3.53;100.00;100994.75;4900093;29;20029;-73
2022/10/26 04:35:48;;;;;;;28.73;19.83;;;;;;;3.62;100.00;101009.88;4900391;29;20036;-75
2022/10/26 04:38:14;;;;;;;28.23;18.97;;;;;;;3.59;100.00;100994.28;4900142;29;20099;-76
2022/10/26 04:40:39;;;;;;;26.27;17.93;;;;;;;3.64;100.00;101000.91;4899839;29;20418;-73
2022/10/26 04:43:05;;;;;;;26.10;18.10;;;;;;;3.62;100.00;100987.00;4900384;29;20067;-71
2022/10/26 04:45:30;;;;;;;29.60;18.83;;;;;;;3.73;100.00;101004.63;4900157;29;20039;-71
2022/10/26 04:48:08;;;;;;;24.50;16.13;;;;;;;3.67;100.00;100986.66;4899996;29;20107;-71
2022/10/26 04:50:34;;;;;;;25.77;16.88;;;;;;;3.77;100.00;100997.38;4900011;29;20032;-71
2022/10/26 04:53:00;;;;;;;28.30;17.93;;;;;;;3.74;100.00;101006.31;4900230;29;20107;-69
2022/10/26 04:55:25;;;;;;;30.97;16.93;;;;;;;3.74;100.00;101001.06;4899672;29;20036;-70
2022/10/26 04:57:51;;;;;;;25.17;17.67;;;;;;;3.79;100.00;101001.56;4899614;29;20033;-72
2022/10/26 05:00:17;;;;;;;27.37;17.57;;;;;;;3.81;100.00;100991.75;4899539;29;20025;-71
2022/10/26 05:02:42;;;;;;;25.97;17.17;;;;;;;3.92;100.00;100997.06;4899348;29;20056;-70
2022/10/26 05:05:14;;;;;;;23.87;16.43;;;;;;;3.96;100.00;101006.41;4882657;29;20040;-70
2022/10/26 05:07:40;;;;;;;22.30;16.77;;;;;;;4.03;100.00;101001.53;4899381;29;20266;-70
2022/10/26 05:10:06;;;;;;;30.03;19.10;;;;;;;3.98;100.00;100999.25;4899404;29;20276;-70
2022/10/26 05:12:32;;;;;;;26.67;16.63;;;;;;;3.93;100.00;100998.75;4899196;29;20033;-70
2022/10/26 05:14:58;;;;;;;24.23;15.50;;;;;;;3.92;100.00;100994.44;4898922;29;20618;-72
2022/10/26 05:17:26;;;;;;;26.87;17.47;;;;;;;3.92;100.00;100998.84;4899136;29;20164;-70
2022/10/26 05:19:54;;;;;;;25.38;16.90;;;;;;;3.85;100.00;100990.59;4899396;29;20040;-70
2022/10/26 05:22:23;;;;;;;27.70;17.20;;;;;;;3.81;100.00;100991.75;4898921;29;20032;-72
2022/10/26 05:24:49;;;;;;;25.73;17.43;;;;;;;3.81;100.00;100986.50;4898016;29;20276;-70
2022/10/26 05:27:18;;;;;;;26.63;17.67;;;;;;;3.89;100.00;100989.41;4881654;29;20264;-71
2022/10/26 05:29:43;;;;;;;;;;;;;;;3.95;100.00;100994.19;4899148;29;20544;-71
2022/10/26 05:32:14;;;;;;;27.70;17.87;;;;;;;3.89;100.00;100989.41;4897299;29;20006;-70
2022/10/26 05:34:40;;;;;;;25.90;17.03;;;;;;;3.96;100.00;100993.25;4898722;29;20036;-71
2022/10/26 05:37:05;;;;;;;32.83;16.40;;;;;;;3.99;100.00;100989.53;4898593;29;20265;-71
2022/10/26 05:39:31;;;;;;;29.10;16.47;;;;;;;4.03;100.00;100997.09;4898887;29;20024;-70
2022/10/26 05:41:56;;;;;;;30.73;17.00;;;;;;;3.97;100.00;100992.28;4898730;29;20465;-72
2022/10/26 05:44:22;;;;;;;29.10;16.70;;;;;;;4.00;100.00;100989.41;4900421;29;20032;-71
2022/10/26 05:46:47;;;;;;;31.63;18.33;;;;;;;4.00;100.00;100988.59;4900672;29;20040;-72
2022/10/26 05:49:14;;;;;;;34.33;18.83;;;;;;;4.00;100.00;100992.06;4902211;29;20036;-70
2022/10/26 05:51:40;;;;;;;29.70;17.20;;;;;;;4.04;100.00;100982.13;4903890;29;20072;-71
2022/10/26 05:54:05;;;;;;;30.13;16.53;;;;;;;4.07;100.00;100986.34;4902563;29;20253;-73
2022/10/26 05:56:39;;;;;;;27.23;17.63;;;;;;;4.08;100.00;100982.75;4899882;29;20040;-72
2022/10/26 05:59:15;;;;;;;28.50;15.67;;;;;;;4.11;100.00;100985.16;4899848;29;20024;-72
2022/10/26 06:01:50;;;;;;;25.10;15.17;;;;;;;4.11;100.00;100983.38;4899416;29;20289;-70
2022/10/26 06:04:24;;;;;;;26.53;16.40;;;;;;;4.15;100.00;100989.25;4900387;29;20269;-71
2022/10/26 06:06:54;;;;;;;23.47;16.10;;;;;;;4.21;100.00;100988.78;4899612;29;20273;-71
2022/10/26 06:09:20;;;;;;;25.37;15.60;;;;;;;4.31;100.00;100992.38;4899167;29;20272;-71
2022/10/26 06:11:46;;;;;;;25.30;15.20;;;;;;;4.31;100.00;100990.59;4899150;29;20259;-72
2022/10/26 06:14:12;;;;;;;20.43;14.10;;;;;;;4.33;100.00;100979.91;4898644;29;20526;-71
2022/10/26 06:16:51;;;;;;;21.67;14.17;;;;;;;4.38;100.00;100988.34;4898894;29;20492;-71
2022/10/26 06:19:35;;;;;;;19.83;13.40;;;;;;;4.35;100.00;100986.78;4906309;29;20059;-71
2022/10/26 06:22:20;;;;;;;21.63;14.47;;;;;;;4.36;100.00;100979.72;4882760;29;20646;-71
2022/10/26 06:25:17;;;;;;;21.00;13.63;;;;;;;4.43;100.00;100985.34;4898464;29;20291;-72
2022/10/26 06:27:57;;;;;;;21.13;13.67;;;;;;;4.49;100.00;100998.06;4898497;29;20340;-71
2022/10/26 06:30:23;;;;;;;20.57;11.87;;;;;;;4.48;100.00;100997.22;4898027;29;20261;-72
2022/10/26 06:32:54;;;;;;;27.17;16.47;;;;;;;4.52;100.00;100990.75;4897791;29;20261;-71
2022/10/26 06:35:44;;;;;;;22.77;12.27;;;;;;;4.57;100.00;100995.66;4897781;29;20044;-74
2022/10/26 06:38:14;;;;;;;16.30;11.40;;;;;;;4.56;100.00;100989.53;4897627;29;20363;-72
2022/10/26 06:40:43;;;;;;;17.77;11.10;;;;;;;4.64;100.00;100992.44;4897547;29;20813;-71
2022/10/26 06:43:21;;;;;;;17.87;12.20;;;;;;;4.62;100.00;100982.94;4897646;29;20272;-72
2022/10/26 06:45:55;;;;;;;16.97;11.50;;;;;;;4.63;100.00;100996.06;4897719;29;20272;-72
2022/10/26 06:48:27;;;;;;;24.30;11.60;;;;;;;4.61;100.00;100990.03;4897514;29;20294;-73
2022/10/26 06:50:53;;;;;;;16.93;11.03;;;;;;;4.61;100.00;100982.09;4897358;29;20272;-70
2022/10/26 06:53:37;;;;;;;17.27;9.97;;;;;;;4.75;100.00;100988.13;4897414;29;20269;-71
2022/10/26 06:56:03;;;;;;;14.27;9.70;;;;;;;4.79;100.00;100973.75;4897246;29;20503;-71
2022/10/26 06:58:33;;;;;;;15.57;10.03;;;;;;;4.80;100.00;100964.84;4897265;29;20260;-71
2022/10/26 07:01:03;;;;;;;19.23;10.70;;;;;;;4.75;100.00;100965.22;4897707;29;20076;-69
2022/10/26 07:03:30;;;;;;;15.67;10.23;;;;;;;4.72;100.00;100967.25;4880643;29;20380;-71
2022/10/26 07:05:56;;;;;;;17.00;11.87;;;;;;;4.73;100.00;100974.22;4897463;29;20277;-71
2022/10/26 07:08:47;;;;;;;17.97;11.13;;;;;;;4.79;100.00;100976.38;4897827;29;20273;-72
2022/10/26 07:11:12;;;;;;;18.33;11.40;;;;;;;4.85;100.00;100981.16;4901833;29;20264;-71
2022/10/26 07:13:38;;;;;;;21.83;11.63;;;;;;;4.90;100.00;100981.63;4901509;29;20056;-71
2022/10/26 07:16:04;;;;;;;16.43;11.00;;;;;;;4.95;100.00;100982.97;4901338;29;20369;-73
2022/10/26 07:18:29;;;;;;;22.70;11.40;;;;;;;4.95;100.00;100968.94;4898094;29;20040;-71
2022/10/26 07:20:57;;;;;;;20.50;10.73;;;;;;;4.98;100.00;100985.38;4897760;29;20083;-71
2022/10/26 07:23:23;;;;;;;19.95;10.73;;;;;;;4.99;100.00;100978.28;4897286;29;20111;-71
2022/10/26 07:25:49;;;;;;;14.67;10.20;;;;;;;5.06;100.00;100982.13;4898060;29;20127;-71
2022/10/26 07:28:14;;;;;;;18.33;9.93;;;;;;;5.00;100.00;100974.69;4898018;29;20041;-71
2022/10/26 07:30:40;;;;;;;19.03;11.40;;;;;;;5.10;100.00;100985.34;4897686;29;20032;-71
2022/10/26 07:33:11;;;;;;;21.50;11.90;;;;;;;5.18;100.00;100990.84;4903399;29;20392;-71
2022/10/26 07:35:37;;;;;;;17.93;10.77;;;;;;;5.14;100.00;100984.97;4904326;29;20033;-70
2022/10/26 07:38:03;;;;;;;14.90;10.30;;;;;;;5.03;100.00;100971.81;4896964;29;20264;-70
2022/10/26 07:40:29;;;;;;;20.87;11.20;;;;;;;5.15;100.00;100996.38;4901378;29;20265;-71
2022/10/26 07:42:56;;;;;;;21.33;11.27;;;;;;;5.16;100.00;100993.63;4896946;29;20253;-73
2022/10/26 07:45:22;;;;;;;16.87;10.03;;;;;;;5.19;100.00;100992.53;4896992;29;20032;-71
2022/10/26 07:47:49;;;;;;;16.43;10.93;;;;;;;5.21;100.00;100985.34;4897878;29;20272;-71
2022/10/26 07:50:14;;;;;;;17.77;11.10;;;;;;;5.32;100.00;100992.41;4900470;29;20199;-72
2022/10/26 07:52:40;;;;;;;18.00;11.27;;;;;;;5.31;100.00;100980.16;4900342;29;20351;-70
2022/10/26 07:55:08;;;;;;;15.67;10.40;;;;;;;5.30;100.00;100979.31;4900314;29;20088;-72
2022/10/26 07:57:33;;;;;;;18.73;11.07;;;;;;;5.31;100.00;100993.38;4900344;29;20497;-73
2022/10/26 07:59:59;;;;;;;21.67;11.10;;;;;;;5.33;100.00;100983.53;4900456;29;20036;-72
2022/10/26 08:02:26;;;;;;;14.47;10.17;;;;;;;5.34;100.00;100985.19;4900117;29;20349;-72
2022/10/26 08:04:51;;;;;;;13.77;8.93;;;;;;;5.31;100.00;100982.81;4900382;29;20497;-72
2022/10/26 08:07:17;;;;;;;13.50;9.23;;;;;;;5.29;100.00;100983.78;4900660;29;20303;-73
2022/10/26 08:09:45;;;;;;;12.50;9.18;;;;;;;5.32;100.00;100993.25;4883046;29;20152;-71
2022/10/26 08:12:12;;;;;;;11.27;7.70;;;;;;;5.33;100.00;100981.72;4900395;29;20521;-71
2022/10/26 08:14:38;;;;;;;11.97;8.87;;;;;;;5.38;100.00;100987.47;4900496;29;20032;-71
2022/10/26 08:17:03;;;;;;;13.33;9.37;;;;;;;5.43;100.00;100995.84;4883929;29;20325;-71
2022/10/26 08:19:28;;;;;;;16.97;11.37;;;;;;;5.45;100.00;100993.09;4901579;29;20422;-74
2022/10/26 08:21:54;;;;;;;15.37;10.37;;;;;;;5.51;100.00;100992.63;4901019;29;20056;-73
2022/10/26 08:24:19;;;;;;;15.83;9.77;;;;;;;5.61;100.00;100988.25;4900891;29;20029;-73
2022/10/26 08:26:45;;;;;;;15.27;10.03;;;;;;;5.49;100.00;100949.59;4901473;29;20465;-73
2022/10/26 08:29:10;;;;;;;13.93;8.47;;;;;;;5.77;100.00;100988.66;4901871;29;20473;-73
2022/10/26 08:31:36;;;;;;;14.60;9.13;;;;;;;5.80;100.00;100998.16;4901204;29;20461;-73
2022/10/26 08:34:03;;;;;;;13.13;9.70;;;;;;;5.76;100.00;100979.03;4903041;29;20140;-73
2022/10/26 08:36:29;;;;;;;13.93;8.80;;;;;;;5.83;100.00;100996.09;4902044;29;20037;-73
2022/10/26 08:38:54;;;;;;;15.87;9.90;;;;;;;5.87;100.00;100989.59;4901645;29;20312;-73
2022/10/26 08:41:37;;;;;;;17.03;9.07;;;;;;;5.90;100.00;100993.81;4902388;29;20089;-75
2022/10/26 08:44:26;;;;;;;14.93;9.73;;;;;;;5.86;100.00;100992.38;4901703;29;20111;-76
2022/10/26 08:46:58;;;;;;;18.40;10.70;;;;;;;5.90;100.00;100999.94;4900065;29;20670;-74
2022/10/26 08:49:25;;;;;;;14.57;9.23;;;;;;;5.93;100.00;100998.84;4899835;29;20305;-72
2022/10/26 08:51:56;;;;;;;12.63;9.50;;;;;;;5.96;100.00;100992.47;4899639;29;20465;-74
2022/10/26 08:54:34;;;;;;;18.70;10.07;;;;;;;6.04;100.00;100990.84;4883597;29;20676;-73
2022/10/26 08:57:07;;;;;;;17.50;11.90;;;;;;;5.92;100.00;100964.63;4900742;29;20075;-75
2022/10/26 09:00:12;;;;;;;17.10;10.60;;;;;;;6.25;100.00;101009.38;4900037;29;20032;-74
2022/10/26 09:02:40;;;;;;;17.67;11.40;;;;;;;6.27;100.00;101007.44;4900331;29;20392;-74
2022/10/26 09:05:15;;;;;;;20.45;12.00;;;;;;;6.30;100.00;100999.25;4900240;29;20048;-73
2022/10/26 09:08:14;;;;;;;17.33;11.47;;;;;;;6.27;100.00;100996.88;4900515;29;20032;-75
2022/10/26 09:11:14;;;;;;;22.43;12.30;;;;;;;6.33;100.00;100998.16;4900041;29;20087;-74
2022/10/26 09:13:48;;;;;;;21.03;12.63;;;;;;;6.34;100.00;100989.25;4899796;29;20032;-74
2022/10/26 09:16:44;;;;;;;16.53;12.47;;;;;;;6.30;100.00;100991.31;4899212;29;20041;-75
2022/10/26 09:19:15;;;;;;;21.37;13.43;;;;;;;6.29;100.00;100992.28;4900482;29;20127;-74
2022/10/26 09:22:08;;;;;;;22.33;12.73;;;;;;;6.41;100.00;100996.56;4899898;29;20036;-73
2022/10/26 09:24:41;;;;;;;19.30;12.83;;;;;;;6.52;100.00;100991.19;4899871;29;20413;-73
2022/10/26 09:27:06;;;;;;;21.57;13.50;;;;;;;6.55;100.00;100989.25;4899409;29;20064;-74
2022/10/26 09:29:39;;;;;;;15.40;12.40;;;;;;;6.58;100.00;100988.97;4899296;29;20032;-72
2022/10/26 09:32:18;;;;;;;19.53;12.50;;;;;;;6.57;100.00;100987.28;4899225;29;20036;-71
2022/10/26 09:34:54;;;;;;;17.37;12.67;;;;;;;6.67;100.00;100991.69;4898953;29;20028;-72
2022/10/26 09:37:25;;;;;;;20.13;14.03;;;;;;;6.73;100.00;100992.97;4898882;29;20028;-73
2022/10/26 09:40:10;;;;;;;22.23;13.83;;;;;;;6.76;100.00;100993.53;4899078;29;20603;-74
2022/10/26 09:42:43;;;;;;;22.57;14.10;;;;;;;6.77;100.00;100999.66;4899226;29;20052;-75
2022/10/26 09:45:21;;;;;;;19.63;13.57;;;;;;;6.75;100.00;100999.81;4898985;29;20096;-73
2022/10/26 09:47:51;;;;;;;29.07;17.20;;;;;;;6.75;100.00;101002.44;4899286;29;20477;-73
2022/10/26 09:50:19;;;;;;;22.47;15.17;;;;;;;6.73;100.00;101001.75;4899214;29;20036;-74
2022/10/26 09:52:45;;;;;;;25.08;14.57;;;;;;;6.67;100.00;100990.84;4898894;29;20032;-71
2022/10/26 09:55:11;;;;;;;22.73;14.43;;;;;;;6.61;100.00;100989.53;4898413;29;20495;-72
2022/10/26 09:57:41;;;;;;;23.00;14.80;;;;;;;6.60;100.00;100995.81;4898294;29;20155;-72
2022/10/26 10:00:15;;;;;;;21.60;13.87;;;;;;;6.57;100.00;100992.59;4897986;29;20032;-73
2022/10/26 10:02:51;;;;;;;22.40;15.00;;;;;;;6.64;100.00;100999.03;4898291;29;20196;-72
2022/10/26 10:05:26;;;;;;;19.20;13.33;;;;;;;6.69;100.00;101002.16;4898182;29;20488;-72
2022/10/26 10:08:09;;;;;;;25.33;14.03;;;;;;;6.76;100.00;101003.28;4898198;29;20031;-71
2022/10/26 10:10:35;;;;;;;21.47;13.97;;;;;;;6.78;100.00;100998.69;4897720;29;20032;-71
2022/10/26 10:13:16;;;;;;;27.67;14.93;;;;;;;6.80;100.00;101000.25;4898579;29;20032;-73
2022/10/26 10:15:51;;;;;;;20.93;15.13;;;;;;;6.76;100.00;101001.47;4898610;29;20029;-72
2022/10/26 10:18:20;;;;;;;21.37;15.23;;;;;;;6.80;100.00;101002.03;4898879;29;20492;-72
2022/10/26 10:20:52;;;;;;;21.38;14.02;;;;;;;6.90;100.00;100994.13;4898532;29;20028;-74
2022/10/26 10:23:28;;;;;;;24.67;15.93;;;;;;;6.95;100.00;100991.97;4898390;29;20086;-75
2022/10/26 10:26:06;;;;;;;24.27;14.43;;;;;;;7.03;100.00;100995.59;4881609;29;20021;-71
2022/10/26 10:28:36;;;;;;;22.58;13.63;;;;;;;7.04;100.00;100999.94;4898394;29;20031;-72
2022/10/26 10:31:20;;;;;;;23.57;14.80;;;;;;;7.08;100.00;100997.84;4898238;29;20041;-72
2022/10/26 10:33:53;;;;;;;25.53;15.83;;;;;;;7.10;100.00;100999.38;4897837;29;20029;-73
2022/10/26 10:37:24;;;;;;;25.73;16.27;;;;;;;7.25;100.00;101006.97;4898358;29;20051;-72
2022/10/26 10:40:07;;;;;;;30.30;17.37;;;;;;;7.32;100.00;100998.34;4840830;29;20061;-72
2022/10/26 10:42:36;;;;;;;27.90;17.57;;;;;;;7.35;100.00;100999.88;4839957;29;20033;-73
2022/10/26 10:45:04;;;;;;;29.23;17.03;;;;;;;7.38;100.00;101003.09;4885966;29;20108;-74
2022/10/26 10:47:32;;;;;;;29.85;20.23;;;;;;;7.44;100.00;101007.00;4897894;29;20421;-73
2022/10/26 10:50:03;;;;;;;32.47;18.95;;;;;;;7.50;100.00;101011.75;4897136;29;20085;-72
2022/10/26 10:52:34;;;;;;;33.90;19.23;;;;;;;7.50;100.00;101003.78;4897075;29;20377;-72
2022/10/26 10:55:13;;;;;;;46.50;21.03;;;;;;;7.49;100.00;101011.88;4897583;29;20060;-71
2022/10/26 10:57:48;;;;;;;34.83;20.47;;;;;;;7.52;100.00;101019.56;4897328;29;20028;-73
2022/10/26 11:00:13;;;;;;;31.00;18.63;;;;;;;7.52;100.00;101006.31;4880286;29;20029;-73
2022/10/26 11:02:42;;;;;;;29.57;18.47;;;;;;;7.55;100.00;101016.66;4897406;29;20049;-72
2022/10/26 11:05:50;;;;;;;34.60;20.98;;;;;;;7.57;100.00;101012.91;4897311;29;20052;-72
2022/10/26 11:08:27;;;;;;;28.17;19.98;;;;;;;7.55;100.00;101022.81;4897411;29;20044;-72
2022/10/26 11:10:59;;;;;;;38.20;21.90;;;;;;;7.46;100.00;101008.53;4897369;29;20077;-73
2022/10/26 11:13:42;;;;;;;31.07;20.77;;;;;;;7.46;100.00;101002.41;4897315;29;20033;-72
2022/10/26 11:16:40;;;;;;;35.80;20.17;;;;;;;7.51;100.00;101016.06;4897658;29;20025;-72
2022/10/26 11:19:15;;;;;;;;;;;;;;;7.55;100.00;101016.66;4878469;29;20036;-72
2022/10/26 11:21:44;;;;;;;41.77;24.03;;;;;;;7.46;100.00;100995.28;4897400;29;20344;-72
2022/10/26 11:24:33;;;;;;;30.50;21.53;;;;;;;7.63;100.00;101014.16;4896648;29;20029;-71
2022/10/26 11:27:10;;;;;;;39.95;24.58;;;;;;;7.59;100.00;101008.28;4897312;29;20484;-74
2022/10/26 11:30:06;;;;;;;31.80;21.70;;;;;;;7.65;100.00;101017.50;4897033;29;20033;-71